Keren, Eritrea
Current Conditions -  °F | °C
As of 7:00 PM on Sunday 23 Nov 2014 (Local Time) from OEGN Reporting Station
Few Clouds Few Clouds  
Wind Chill: 86°   Ceiling: Unl
Heat Index: 97°   Visibility: 6mi
Dew Point: 77°   Wind: 6mph
Humidity: 74%   Direction: 230°SW
Pressure: 29.83"   Gusts: NA
Location:  15.68°N, 38.45°E
Report Text: OEGN 231600Z 23005KT 9999 FEW030 30/25 Q1010 NOSIG
Loading
Personal Weather Stations






























Interactive Weather Map New forecast layout! Learn more

10-Day Weather Forecast

Advertisements
Track Severe Weather on mobile